Time;durP1;ratioP1;P1;durP2;ratioP2;P2;SDS_P1;SDS_P2;PMS_P1;PMS_P2;Temp;Humidity;BMP_temperature;BMP_pressure;BME280_temperature;BME280_humidity;BME280_pressure;Samples;Min_cycle;Max_cycle;Signal;HPM_P1;HPM_P2
2023/09/18 00:01:45;;;;;;;11.48;6.53;;;;;;;16.77;100.00;93549.84;5091342;28;20075;-59
2023/09/18 00:04:12;;;;;;;33.33;21.40;;;;;;;16.70;100.00;93571.56;5092744;28;20392;-59
2023/09/18 00:06:39;;;;;;;7.65;4.20;;;;;;;16.44;100.00;93598.81;5092218;28;20044;-59
2023/09/18 00:09:11;;;;;;;6.33;3.83;;;;;;;16.41;100.00;93606.03;5093258;28;20044;-59
2023/09/18 00:11:38;;;;;;;7.57;3.90;;;;;;;16.44;100.00;93604.34;5092344;28;20046;-59
2023/09/18 00:14:05;;;;;;;6.35;4.00;;;;;;;16.44;100.00;93569.13;5089219;28;20443;-59
2023/09/18 00:16:32;;;;;;;6.97;4.10;;;;;;;16.41;100.00;93542.34;5093058;28;20179;-59
2023/09/18 00:19:17;;;;;;;7.30;3.83;;;;;;;16.57;100.00;93519.88;5091759;28;20898;-59
2023/09/18 00:21:44;;;;;;;6.70;3.90;;;;;;;16.52;100.00;93534.34;5092149;28;20032;-59
2023/09/18 00:24:11;;;;;;;7.20;4.22;;;;;;;16.53;100.00;93540.66;5092193;28;20032;-60
2023/09/18 00:26:38;;;;;;;8.30;5.00;;;;;;;16.65;100.00;93539.72;5086619;28;20044;-59
2023/09/18 00:29:05;;;;;;;9.57;5.20;;;;;;;16.70;100.00;93535.53;5080013;28;20046;-60
2023/09/18 00:31:31;;;;;;;8.95;4.05;;;;;;;16.86;100.00;93517.81;5088860;28;20032;-60
2023/09/18 00:33:58;;;;;;;7.53;4.13;;;;;;;16.49;100.00;93512.34;5091005;28;20435;-59
2023/09/18 00:36:25;;;;;;;7.68;3.92;;;;;;;16.56;100.00;93510.03;5092278;28;20040;-59
2023/09/18 00:38:51;;;;;;;8.48;4.15;;;;;;;16.69;100.00;93503.53;5091677;28;20052;-59
2023/09/18 00:41:19;;;;;;;8.35;4.10;;;;;;;16.75;100.00;93512.75;5092056;28;20054;-60
2023/09/18 00:43:45;;;;;;;7.95;4.20;;;;;;;16.80;100.00;93505.81;5086482;28;20032;-59
2023/09/18 00:46:12;;;;;;;6.20;3.87;;;;;;;16.85;100.00;93497.66;5092218;28;20567;-60
2023/09/18 00:48:40;;;;;;;20.13;11.07;;;;;;;16.88;100.00;93495.97;5091736;28;20157;-59
2023/09/18 00:51:08;;;;;;;15.55;9.20;;;;;;;16.88;100.00;93496.75;5092345;28;20046;-60
2023/09/18 00:53:36;;;;;;;9.38;4.95;;;;;;;16.89;100.00;93495.50;5091251;28;20050;-59
2023/09/18 00:56:03;;;;;;;7.93;4.18;;;;;;;16.82;100.00;93489.50;5091949;28;20046;-59
2023/09/18 00:58:30;;;;;;;6.83;4.30;;;;;;;16.72;100.00;93489.53;5092070;28;20533;-60
2023/09/18 01:00:58;;;;;;;7.25;4.30;;;;;;;16.69;100.00;93476.59;5091598;28;20069;-59
2023/09/18 01:03:25;;;;;;;6.82;3.78;;;;;;;16.82;100.00;93470.13;5091023;28;20404;-60
2023/09/18 01:05:53;;;;;;;9.02;4.10;;;;;;;16.88;100.00;93457.16;5090872;28;20105;-60
2023/09/18 01:08:20;;;;;;;8.02;4.10;;;;;;;16.96;100.00;93455.59;5090969;28;20044;-59
2023/09/18 01:11:08;;;;;;;8.13;4.40;;;;;;;16.87;100.00;93453.63;5091402;28;20032;-59
2023/09/18 01:13:49;;;;;;;7.80;4.15;;;;;;;16.94;100.00;93436.69;5084314;28;20048;-59
2023/09/18 01:16:24;;;;;;;6.68;4.00;;;;;;;17.01;100.00;93438.31;5092066;28;20499;-59
2023/09/18 01:18:51;;;;;;;7.57;4.05;;;;;;;16.96;100.00;93438.94;5091141;28;20555;-59
2023/09/18 01:21:20;;;;;;;8.40;4.45;;;;;;;16.71;100.00;93445.66;5091710;28;20404;-59
2023/09/18 01:23:49;;;;;;;6.83;4.03;;;;;;;16.53;100.00;93443.69;5090693;28;20505;-59
2023/09/18 01:26:15;;;;;;;7.93;4.30;;;;;;;16.63;100.00;93442.44;5087904;28;20953;-60
2023/09/18 01:28:42;;;;;;;7.78;4.18;;;;;;;16.68;100.00;93439.06;5075282;28;20039;-59
2023/09/18 01:31:09;;;;;;;6.75;3.97;;;;;;;16.65;100.00;93434.44;5084616;28;20396;-60
2023/09/18 01:33:38;;;;;;;8.77;4.30;;;;;;;16.66;100.00;93441.53;5090136;28;20052;-59
2023/09/18 01:36:07;;;;;;;7.73;4.03;;;;;;;16.65;100.00;93441.97;5091401;28;20054;-59
2023/09/18 01:38:36;;;;;;;6.30;3.83;;;;;;;16.59;100.00;93447.38;5090749;28;20044;-59
2023/09/18 01:41:03;;;;;;;9.02;4.03;;;;;;;16.49;100.00;93448.63;5091125;28;20044;-59
2023/09/18 01:43:30;;;;;;;6.80;4.05;;;;;;;16.40;100.00;93449.44;5082379;28;20040;-60
2023/09/18 01:45:57;;;;;;;8.52;4.55;;;;;;;16.48;100.00;93450.66;5090981;28;20043;-59
2023/09/18 01:48:24;;;;;;;6.23;4.20;;;;;;;16.42;100.00;93448.94;5090920;28;20051;-59
2023/09/18 01:50:51;;;;;;;8.65;4.75;;;;;;;16.31;100.00;93447.44;5090773;28;20044;-59
2023/09/18 01:53:17;;;;;;;11.35;4.60;;;;;;;16.37;100.00;93437.25;5090740;28;20400;-59
2023/09/18 01:55:44;;;;;;;8.25;4.40;;;;;;;16.38;100.00;93444.34;5090461;28;20704;-59
2023/09/18 01:58:14;;;;;;;7.32;4.35;;;;;;;16.44;100.00;93438.97;5090820;28;20089;-60
2023/09/18 02:00:41;;;;;;;12.27;4.60;;;;;;;16.42;100.00;93454.50;5090529;28;20053;-60
2023/09/18 02:03:08;;;;;;;7.90;4.20;;;;;;;16.43;100.00;93456.03;5090813;28;20036;-59
2023/09/18 02:05:55;;;;;;;7.65;4.60;;;;;;;16.09;100.00;93466.22;5078955;28;20478;-59
2023/09/18 02:08:22;;;;;;;8.68;4.85;;;;;;;15.82;100.00;93470.53;5090564;28;20047;-60
2023/09/18 02:10:48;;;;;;;9.13;5.00;;;;;;;15.88;100.00;93482.53;5089970;28;20044;-60
2023/09/18 02:13:15;;;;;;;8.47;5.10;;;;;;;15.98;100.00;93484.06;5081089;28;20058;-59
2023/09/18 02:15:43;;;;;;;7.53;4.78;;;;;;;16.11;100.00;93475.59;5089991;28;20043;-59
2023/09/18 02:18:09;;;;;;;7.00;4.65;;;;;;;16.16;100.00;93468.69;5089851;28;20042;-59
2023/09/18 02:20:41;;;;;;;9.85;4.95;;;;;;;16.21;100.00;93473.59;5098524;28;20052;-59
2023/09/18 02:23:08;;;;;;;9.77;5.53;;;;;;;16.23;100.00;93473.91;5090390;28;20273;-59
2023/09/18 02:25:35;;;;;;;8.20;4.80;;;;;;;16.28;100.00;93462.22;5089868;28;20472;-59
2023/09/18 02:28:01;;;;;;;8.75;4.80;;;;;;;16.29;100.00;93454.69;5074551;28;20051;-59
2023/09/18 02:30:28;;;;;;;12.85;5.70;;;;;;;15.86;100.00;93451.78;5090176;28;20047;-60
2023/09/18 02:32:55;;;;;;;8.75;5.32;;;;;;;15.87;100.00;93456.06;5088648;28;20052;-59
2023/09/18 02:35:22;;;;;;;8.90;5.00;;;;;;;16.12;100.00;93457.00;5089583;28;20040;-59
2023/09/18 02:37:49;;;;;;;9.47;5.23;;;;;;;16.10;100.00;93456.72;5089807;28;20099;-59
2023/09/18 02:40:16;;;;;;;9.07;4.80;;;;;;;16.17;100.00;93457.13;5089831;28;20044;-59
2023/09/18 02:42:42;;;;;;;13.68;5.95;;;;;;;16.00;100.00;93446.84;5081435;28;20079;-59
2023/09/18 02:45:09;;;;;;;9.93;4.85;;;;;;;15.81;100.00;93438.56;5089309;28;20046;-60
2023/09/18 02:47:37;;;;;;;9.32;5.50;;;;;;;15.64;100.00;93429.78;5089609;28;20648;-59
2023/09/18 02:50:05;;;;;;;9.33;4.87;;;;;;;15.63;100.00;93444.06;5088625;28;20048;-59
2023/09/18 02:52:32;;;;;;;7.65;4.70;;;;;;;15.71;100.00;93459.88;5089777;28;20097;-59
2023/09/18 02:54:58;;;;;;;27.77;17.05;;;;;;;15.74;100.00;93461.78;5088281;28;21595;-59
2023/09/18 02:57:25;;;;;;;75.22;45.63;;;;;;;15.71;100.00;93484.78;5080971;28;20443;-59
2023/09/18 02:59:52;;;;;;;20.55;13.38;;;;;;;15.74;100.00;93480.38;5082062;28;20048;-59
2023/09/18 03:02:19;;;;;;;8.83;5.63;;;;;;;15.43;100.00;93483.19;5089547;28;20050;-59
2023/09/18 03:04:45;;;;;;;10.85;5.45;;;;;;;15.46;100.00;93498.88;5088803;28;20424;-59
2023/09/18 03:07:13;;;;;;;8.35;5.00;;;;;;;15.45;100.00;93511.94;5089078;28;20062;-59
2023/09/18 03:09:40;;;;;;;9.52;5.60;;;;;;;15.42;100.00;93529.44;5089061;28;20036;-59
2023/09/18 03:12:07;;;;;;;10.52;5.25;;;;;;;15.43;100.00;93530.97;5086505;28;20040;-59
2023/09/18 03:14:34;;;;;;;11.17;5.20;;;;;;;15.57;100.00;93554.53;5082131;28;20048;-59
2023/09/18 03:17:01;;;;;;;9.93;5.00;;;;;;;15.61;100.00;93554.38;5089646;28;20046;-59
2023/09/18 03:19:27;;;;;;;8.05;5.30;;;;;;;15.50;100.00;93552.06;5088821;28;20097;-59
2023/09/18 03:21:54;;;;;;;8.70;5.30;;;;;;;15.29;100.00;93543.38;5089077;28;20715;-59
2023/09/18 03:24:21;;;;;;;8.60;5.43;;;;;;;15.53;100.00;93527.03;5089128;28;20048;-59
2023/09/18 03:26:49;;;;;;;9.93;5.80;;;;;;;15.57;100.00;93535.16;5088885;28;20048;-59
2023/09/18 03:29:15;;;;;;;11.45;5.65;;;;;;;15.63;100.00;93521.50;5088437;28;20040;-59
2023/09/18 03:31:42;;;;;;;10.48;5.40;;;;;;;15.60;100.00;93508.59;5088737;28;20394;-59
2023/09/18 03:34:09;;;;;;;11.20;4.50;;;;;;;15.76;100.00;93513.88;5088568;28;20044;-59
2023/09/18 03:36:37;;;;;;;15.52;4.63;;;;;;;16.03;100.00;93506.81;5088732;28;20042;-59
2023/09/18 03:39:04;;;;;;;14.00;4.00;;;;;;;16.48;100.00;93497.72;5083189;28;20044;-59
2023/09/18 03:41:34;;;;;;;11.63;4.35;;;;;;;16.43;100.00;93489.28;5089230;28;20048;-60
2023/09/18 03:44:01;;;;;;;11.32;4.30;;;;;;;16.45;100.00;93504.19;5083770;28;21514;-60
2023/09/18 03:46:28;;;;;;;13.05;4.43;;;;;;;16.49;100.00;93495.72;5089161;28;20036;-60
2023/09/18 03:48:57;;;;;;;18.48;4.45;;;;;;;16.65;100.00;93476.00;5088377;28;20046;-59
2023/09/18 03:51:24;;;;;;;13.47;4.13;;;;;;;17.03;100.00;93482.97;5089272;28;20070;-60
2023/09/18 03:53:51;;;;;;;11.52;3.90;;;;;;;17.00;100.00;93472.06;5088354;28;20484;-60
2023/09/18 03:56:17;;;;;;;11.30;4.50;;;;;;;16.97;100.00;93479.31;5088854;28;20032;-59
2023/09/18 03:58:49;;;;;;;13.05;4.03;;;;;;;17.03;100.00;93477.44;5088381;28;20048;-60
2023/09/18 04:01:16;;;;;;;15.43;3.40;;;;;;;17.16;100.00;93478.00;5070695;28;20047;-59
2023/09/18 04:03:43;;;;;;;11.83;3.30;;;;;;;17.29;100.00;93477.78;5073969;28;20047;-59
2023/09/18 04:06:09;;;;;;;13.80;3.35;;;;;;;17.42;100.00;93474.00;5078400;28;20048;-59
2023/09/18 04:08:36;;;;;;;15.75;3.42;;;;;;;17.46;100.00;93472.59;5088467;28;20400;-60
2023/09/18 04:11:04;;;;;;;11.43;2.78;;;;;;;17.48;100.00;93463.81;5088890;28;20040;-59
2023/09/18 04:13:31;;;;;;;12.48;3.10;;;;;;;17.50;100.00;93462.09;5080750;28;20259;-57
2023/09/18 04:16:00;;;;;;;10.93;2.80;;;;;;;17.55;100.00;93458.69;5093324;28;20397;-57
2023/09/18 04:18:27;;;;;;;12.70;3.30;;;;;;;17.58;100.00;93466.03;5097999;28;20515;-57
2023/09/18 04:20:54;;;;;;;13.48;3.38;;;;;;;17.51;100.00;93462.88;5088445;28;20100;-57
2023/09/18 04:23:21;;;;;;;16.48;3.55;;;;;;;17.38;100.00;93457.53;5087114;28;20036;-57
2023/09/18 04:25:49;;;;;;;14.52;3.95;;;;;;;17.28;100.00;93453.28;5088282;28;20048;-56
2023/09/18 04:28:18;;;;;;;14.83;3.77;;;;;;;17.31;100.00;93450.34;5088020;28;20036;-60
2023/09/18 04:30:45;;;;;;;13.20;3.42;;;;;;;17.35;100.00;93436.31;5088161;28;20415;-59
2023/09/18 04:33:16;;;;;;;14.27;3.60;;;;;;;17.36;100.00;93440.59;5088004;28;20044;-58
2023/09/18 04:35:44;;;;;;;11.55;3.38;;;;;;;17.30;100.00;93429.38;5087784;28;20036;-58
2023/09/18 04:38:11;;;;;;;18.83;3.50;;;;;;;17.22;100.00;93447.59;5088060;28;20044;-58
2023/09/18 04:40:37;;;;;;;12.90;3.70;;;;;;;17.18;100.00;93452.56;5088314;28;20399;-58
2023/09/18 04:43:08;;;;;;;13.65;3.83;;;;;;;17.12;100.00;93458.00;5079859;28;20056;-57
2023/09/18 04:45:34;;;;;;;12.82;4.32;;;;;;;17.09;100.00;93449.84;5087194;28;20044;-58
2023/09/18 04:48:02;;;;;;;13.75;4.20;;;;;;;17.09;100.00;93452.63;5092065;28;20044;-58
2023/09/18 04:50:29;;;;;;;9.23;3.50;;;;;;;17.06;100.00;93448.75;5091457;28;20499;-58
2023/09/18 04:52:57;;;;;;;14.63;3.60;;;;;;;17.03;100.00;93455.25;5091789;28;20110;-58
2023/09/18 04:55:24;;;;;;;20.05;4.15;;;;;;;16.88;100.00;93454.38;5091577;28;20480;-58
2023/09/18 04:57:51;;;;;;;11.73;3.25;;;;;;;16.86;100.00;93451.31;5091020;28;20044;-58
2023/09/18 05:00:23;;;;;;;11.57;3.20;;;;;;;16.85;100.00;93447.03;5082823;28;20481;-58
2023/09/18 05:02:50;;;;;;;16.00;3.70;;;;;;;16.80;100.00;93453.91;5081942;28;20054;-57
2023/09/18 05:05:17;;;;;;;12.80;3.67;;;;;;;16.80;100.00;93459.47;5091348;28;20495;-58
2023/09/18 05:07:45;;;;;;;12.70;3.63;;;;;;;16.78;100.00;93456.38;5057715;28;20053;-58
2023/09/18 05:10:11;;;;;;;12.60;4.50;;;;;;;16.73;100.00;93457.78;5055064;28;20105;-58
2023/09/18 05:12:39;;;;;;;12.95;3.72;;;;;;;16.73;100.00;93466.09;5050836;28;20452;-58
2023/09/18 05:15:06;;;;;;;10.63;2.90;;;;;;;16.52;100.00;93473.41;5050752;28;20512;-58
2023/09/18 05:17:46;;;;;;;9.73;2.80;;;;;;;16.60;100.00;93467.53;5050570;28;20057;-56
2023/09/18 05:20:16;;;;;;;14.02;3.67;;;;;;;16.68;100.00;93468.75;5051013;28;20040;-58
2023/09/18 05:22:44;;;;;;;11.95;3.80;;;;;;;16.66;100.00;93479.53;5050775;28;20041;-58
2023/09/18 05:25:12;;;;;;;9.38;2.60;;;;;;;16.69;100.00;93484.91;5051058;28;20626;-58
2023/09/18 05:27:43;;;;;;;14.63;3.50;;;;;;;16.45;100.00;93486.81;5050426;28;20078;-58
2023/09/18 05:30:12;;;;;;;12.63;3.57;;;;;;;16.37;100.00;93481.56;5049196;28;20045;-58
2023/09/18 05:32:39;;;;;;;10.70;3.38;;;;;;;16.52;100.00;93483.69;5050796;28;20045;-57
2023/09/18 05:35:06;;;;;;;13.57;3.78;;;;;;;16.63;100.00;93488.78;5050657;28;20052;-58
2023/09/18 05:37:33;;;;;;;11.10;3.42;;;;;;;16.70;100.00;93482.91;5049886;28;20086;-56
2023/09/18 05:40:00;;;;;;;10.63;3.50;;;;;;;16.78;100.00;93473.00;5051521;28;20094;-58
2023/09/18 05:42:27;;;;;;;16.00;4.23;;;;;;;16.85;100.00;93466.44;5053914;28;20082;-58
2023/09/18 05:44:54;;;;;;;15.68;3.60;;;;;;;16.93;100.00;93465.63;5049847;28;20045;-58
2023/09/18 05:47:21;;;;;;;11.90;3.47;;;;;;;16.95;100.00;93463.13;5050922;28;20059;-58
2023/09/18 05:49:47;;;;;;;12.18;3.33;;;;;;;17.00;100.00;93469.28;5049843;28;20037;-58
2023/09/18 05:52:14;;;;;;;10.32;3.05;;;;;;;17.05;100.00;93471.44;5050104;28;20509;-58
2023/09/18 05:54:41;;;;;;;8.17;3.00;;;;;;;17.11;100.00;93472.31;5049748;28;20498;-58
2023/09/18 05:57:08;;;;;;;8.32;3.10;;;;;;;17.11;100.00;93478.63;5050444;28;20106;-58
2023/09/18 05:59:34;;;;;;;12.10;3.22;;;;;;;17.00;100.00;93495.00;5040670;28;20049;-58
2023/09/18 06:02:02;;;;;;;12.52;3.17;;;;;;;17.03;100.00;93496.84;5047535;28;20098;-58
2023/09/18 06:04:30;;;;;;;11.10;3.10;;;;;;;17.12;100.00;93494.03;5048676;28;20045;-58
2023/09/18 06:06:57;;;;;;;9.07;3.40;;;;;;;17.07;100.00;93491.13;5073183;28;20085;-58
2023/09/18 06:09:24;;;;;;;9.85;3.05;;;;;;;17.13;100.00;93501.13;5078743;28;20044;-58
2023/09/18 06:11:51;;;;;;;9.77;3.30;;;;;;;17.14;100.00;93497.13;5077231;28;20045;-58
2023/09/18 06:14:17;;;;;;;12.30;3.47;;;;;;;17.13;100.00;93492.03;5077206;28;20051;-58
2023/09/18 06:16:44;;;;;;;11.90;3.53;;;;;;;16.77;100.00;93486.09;5076427;28;20400;-58
2023/09/18 06:19:11;;;;;;;13.57;3.43;;;;;;;16.73;100.00;93487.50;5083728;28;20039;-58
2023/09/18 06:21:38;;;;;;;18.48;3.55;;;;;;;16.95;100.00;93476.25;5104202;28;20111;-58
2023/09/18 06:24:06;;;;;;;12.10;3.55;;;;;;;16.98;100.00;93480.81;5094625;28;20048;-58
2023/09/18 06:26:32;;;;;;;7.78;3.20;;;;;;;17.16;100.00;93472.47;5090291;28;20040;-58
2023/09/18 06:28:59;;;;;;;12.52;3.60;;;;;;;17.14;100.00;93477.72;5088871;28;22181;-58
2023/09/18 06:31:26;;;;;;;14.33;3.93;;;;;;;17.33;100.00;93481.16;5089921;28;20055;-58
2023/09/18 06:33:53;;;;;;;13.13;3.50;;;;;;;17.14;100.00;93486.03;5088069;28;20058;-58
2023/09/18 06:36:20;;;;;;;11.57;3.70;;;;;;;17.35;100.00;93495.31;5089621;28;20047;-58
2023/09/18 06:38:46;;;;;;;12.93;3.60;;;;;;;17.41;100.00;93498.22;5073381;28;20048;-58
2023/09/18 06:41:14;;;;;;;20.40;3.72;;;;;;;17.53;100.00;93496.47;5079395;28;20374;-58
2023/09/18 06:43:41;;;;;;;10.03;3.17;;;;;;;17.64;100.00;93515.34;5084895;28;20044;-58
2023/09/18 06:46:07;;;;;;;11.57;3.83;;;;;;;17.74;100.00;93512.03;5093273;28;20112;-58
2023/09/18 06:48:35;;;;;;;8.23;2.70;;;;;;;17.75;100.00;93521.91;5092605;28;20044;-58
2023/09/18 06:51:01;;;;;;;8.98;3.88;;;;;;;17.95;100.00;93537.25;5090248;28;20040;-58
2023/09/18 06:53:28;;;;;;;9.23;2.60;;;;;;;17.64;100.00;93540.34;5081848;28;20041;-58
2023/09/18 06:55:55;;;;;;;10.90;2.83;;;;;;;17.66;100.00;93544.16;5087878;28;20040;-59
2023/09/18 06:58:22;;;;;;;10.25;2.50;;;;;;;17.73;100.00;93549.38;5089776;28;20036;-58
2023/09/18 07:00:50;;;;;;;7.32;1.80;;;;;;;17.83;100.00;93555.69;5089004;28;20044;-58
2023/09/18 07:03:17;;;;;;;8.23;2.03;;;;;;;17.99;100.00;93556.50;5089678;28;20040;-59
2023/09/18 07:05:46;;;;;;;8.88;2.60;;;;;;;18.11;100.00;93566.59;5085245;28;20036;-59
2023/09/18 07:08:13;;;;;;;9.57;2.43;;;;;;;18.13;100.00;93564.91;5088631;28;20065;-59
2023/09/18 07:10:40;;;;;;;9.45;2.58;;;;;;;18.10;100.00;93562.28;5085634;28;21471;-59
2023/09/18 07:13:06;;;;;;;7.32;2.45;;;;;;;18.24;100.00;93577.47;5071011;28;20044;-59
2023/09/18 07:15:33;;;;;;;5.93;2.13;;;;;;;18.17;100.00;93571.03;5081575;28;20046;-57
2023/09/18 07:18:00;;;;;;;5.95;2.00;;;;;;;18.21;100.00;93570.09;5089198;28;20032;-59
2023/09/18 07:20:27;;;;;;;6.37;2.03;;;;;;;18.20;100.00;93571.34;5089685;28;20052;-59
2023/09/18 07:22:54;;;;;;;5.78;1.88;;;;;;;18.10;100.00;93592.84;5088919;28;20093;-59
2023/09/18 07:25:20;;;;;;;6.63;1.80;;;;;;;18.07;100.00;93596.56;5087965;28;20047;-59
2023/09/18 07:27:47;;;;;;;5.60;1.70;;;;;;;18.09;100.00;93605.19;5088759;28;20055;-59
2023/09/18 07:30:19;;;;;;;7.28;1.70;;;;;;;18.12;100.00;93626.47;5089493;28;20515;-58
2023/09/18 07:32:46;;;;;;;8.00;1.80;;;;;;;17.89;100.00;93597.44;5088757;28;20032;-59
2023/09/18 07:35:14;;;;;;;8.73;2.13;;;;;;;17.56;100.00;93576.72;5089379;28;20050;-59
2023/09/18 07:37:44;;;;;;;6.05;1.55;;;;;;;17.52;100.00;93601.09;5088794;28;20036;-58
2023/09/18 07:40:11;;;;;;;6.72;1.50;;;;;;;17.43;100.00;93620.56;5089277;28;20040;-59
2023/09/18 07:42:37;;;;;;;4.68;1.58;;;;;;;17.43;100.00;93631.66;5088551;28;20040;-59
2023/09/18 07:45:05;;;;;;;5.77;1.60;;;;;;;17.23;100.00;93640.50;5088979;28;20096;-58
2023/09/18 07:47:31;;;;;;;4.53;1.20;;;;;;;17.17;100.00;93643.13;5089280;28;20054;-58
2023/09/18 07:49:59;;;;;;;5.95;1.58;;;;;;;17.05;100.00;93643.31;5088303;28;20624;-58
2023/09/18 07:52:27;;;;;;;7.75;1.63;;;;;;;16.90;100.00;93668.09;5089116;28;20040;-59
2023/09/18 07:54:53;;;;;;;6.75;1.92;;;;;;;16.75;100.00;93659.63;5088388;28;20063;-59
2023/09/18 07:57:22;;;;;;;6.60;1.87;;;;;;;16.62;100.00;93668.09;5089060;28;20040;-58
2023/09/18 07:59:50;;;;;;;6.10;1.92;;;;;;;16.39;100.00;93677.75;5088674;28;20044;-59
2023/09/18 08:02:17;;;;;;;6.25;1.70;;;;;;;16.37;100.00;93663.59;5089184;28;20039;-58
2023/09/18 08:04:44;;;;;;;5.60;1.60;;;;;;;16.08;100.00;93648.16;5088608;28;20040;-58
2023/09/18 08:07:12;;;;;;;6.55;1.50;;;;;;;16.18;100.00;93635.09;5088570;28;20082;-58
2023/09/18 08:09:39;;;;;;;4.70;1.30;;;;;;;15.94;100.00;93632.91;5088990;28;20040;-58
2023/09/18 08:12:09;;;;;;;7.10;1.40;;;;;;;15.66;100.00;93631.25;5075742;28;20209;-59
2023/09/18 08:14:36;;;;;;;3.42;1.40;;;;;;;15.97;100.00;93618.13;5073474;28;20055;-57
2023/09/18 08:17:04;;;;;;;5.43;1.50;;;;;;;16.24;100.00;93604.78;5091730;28;20404;-58
2023/09/18 08:19:33;;;;;;;4.85;1.45;;;;;;;16.70;100.00;93607.56;5092368;28;20089;-57
2023/09/18 08:22:00;;;;;;;4.43;1.50;;;;;;;16.51;100.00;93604.81;5081214;28;20040;-58
2023/09/18 08:24:30;;;;;;;4.57;2.03;;;;;;;16.48;100.00;93608.53;5091209;28;20104;-58
2023/09/18 08:26:57;;;;;;;6.82;1.60;;;;;;;16.90;100.00;93610.69;5092461;28;20036;-58
2023/09/18 08:29:24;;;;;;;5.72;1.60;;;;;;;16.76;100.00;93603.75;5092327;28;20410;-59
2023/09/18 08:31:50;;;;;;;4.22;1.58;;;;;;;16.55;100.00;93610.22;5092299;28;20047;-59
2023/09/18 08:34:17;;;;;;;4.30;1.27;;;;;;;16.51;100.00;93609.59;5092207;28;20395;-59
2023/09/18 08:36:47;;;;;;;4.53;1.20;;;;;;;16.42;100.00;93601.28;5091939;28;20036;-60
2023/09/18 08:39:14;;;;;;;5.20;1.30;;;;;;;16.81;100.00;93618.22;5091913;28;20063;-59
2023/09/18 08:41:43;;;;;;;8.07;1.75;;;;;;;17.07;100.00;93610.34;5092338;28;20048;-58
2023/09/18 08:44:10;;;;;;;6.97;1.42;;;;;;;16.96;100.00;93622.69;5092152;28;20055;-59
2023/09/18 08:46:37;;;;;;;5.50;1.40;;;;;;;16.66;100.00;93618.84;5091587;28;20054;-58
2023/09/18 08:49:04;;;;;;;5.57;1.60;;;;;;;16.17;100.00;93616.94;5092434;28;20040;-58
2023/09/18 08:51:33;;;;;;;6.63;1.40;;;;;;;16.45;100.00;93628.06;5092097;28;20050;-59
2023/09/18 08:54:02;;;;;;;4.38;1.70;;;;;;;16.56;100.00;93615.28;5091213;28;20341;-58
2023/09/18 08:56:31;;;;;;;5.00;1.10;;;;;;;16.54;100.00;93631.59;5092029;28;20417;-58
2023/09/18 08:58:59;;;;;;;5.17;1.40;;;;;;;16.57;100.00;93668.69;5091543;28;20044;-58
2023/09/18 09:01:26;;;;;;;4.35;1.40;;;;;;;16.71;100.00;93661.78;5091727;28;20500;-58
2023/09/18 09:03:53;;;;;;;4.18;1.30;;;;;;;16.57;100.00;93663.91;5091349;28;20048;-58
2023/09/18 09:06:20;;;;;;;4.85;1.33;;;;;;;16.47;100.00;93654.06;5091497;28;20066;-58
2023/09/18 09:08:46;;;;;;;3.75;1.20;;;;;;;16.50;100.00;93666.22;5091096;28;20040;-58
2023/09/18 09:11:13;;;;;;;5.57;1.50;;;;;;;16.35;100.00;93675.13;5086854;28;20040;-58
2023/09/18 09:13:40;;;;;;;4.32;1.48;;;;;;;16.27;100.00;93671.09;5074828;28;20040;-58
2023/09/18 09:16:13;;;;;;;4.78;1.30;;;;;;;16.33;100.00;93677.56;5089717;28;20048;-59
2023/09/18 09:18:49;;;;;;;4.35;1.20;;;;;;;16.21;100.00;93683.25;5091422;28;20032;-58
2023/09/18 09:21:16;;;;;;;5.75;1.40;;;;;;;16.34;100.00;93695.75;5091640;28;20040;-58
2023/09/18 09:23:52;;;;;;;5.90;1.40;;;;;;;16.42;100.00;93693.47;5091279;28;20037;-59
2023/09/18 09:26:22;;;;;;;5.40;1.50;;;;;;;16.34;100.00;93697.75;5091383;28;20495;-58
2023/09/18 09:28:49;;;;;;;5.28;1.52;;;;;;;16.53;100.00;93701.31;5089811;28;20051;-59
2023/09/18 09:31:42;;;;;;;4.07;1.77;;;;;;;16.54;100.00;93705.63;5091376;28;20097;-58
2023/09/18 09:34:09;;;;;;;4.88;1.60;;;;;;;16.62;100.00;93711.63;5086934;28;20690;-59
2023/09/18 09:36:36;;;;;;;5.57;1.67;;;;;;;16.83;100.00;93712.78;5091022;28;20044;-58
2023/09/18 09:39:05;;;;;;;3.63;1.50;;;;;;;16.92;100.00;93698.91;5091345;28;20066;-59
2023/09/18 09:41:33;;;;;;;5.25;1.65;;;;;;;16.92;100.00;93705.25;5084833;28;20401;-59
2023/09/18 09:44:00;;;;;;;5.43;1.60;;;;;;;16.80;100.00;93703.34;5085991;28;20881;-58
2023/09/18 09:46:27;;;;;;;5.65;1.67;;;;;;;16.95;100.00;93690.44;5091092;28;20050;-58
2023/09/18 09:49:02;;;;;;;4.17;1.43;;;;;;;17.07;100.00;93694.28;5091083;28;20476;-58
2023/09/18 09:51:29;;;;;;;3.85;1.60;;;;;;;16.68;100.00;93693.97;5091135;28;20040;-59
2023/09/18 09:53:58;;;;;;;4.80;1.92;;;;;;;16.47;100.00;93676.22;5090398;28;20047;-58
2023/09/18 09:56:50;;;;;;;4.05;1.70;;;;;;;16.34;100.00;93670.81;5090717;28;20415;-59
2023/09/18 09:59:19;;;;;;;5.30;1.50;;;;;;;16.23;100.00;93655.88;5089773;28;20644;-59
2023/09/18 10:01:48;;;;;;;4.00;1.53;;;;;;;16.12;100.00;93659.84;5090488;28;20100;-58
2023/09/18 10:04:17;;;;;;;4.55;1.52;;;;;;;16.30;100.00;93653.59;5090574;28;20040;-58
2023/09/18 10:06:51;;;;;;;3.30;1.40;;;;;;;16.28;100.00;93635.88;5090173;28;20109;-59
2023/09/18 10:09:20;;;;;;;4.88;1.25;;;;;;;16.17;100.00;93612.16;5090498;28;20044;-58
2023/09/18 10:11:52;;;;;;;4.68;1.40;;;;;;;16.05;100.00;93604.00;5090193;28;20054;-58
2023/09/18 10:14:31;;;;;;;4.43;1.37;;;;;;;16.01;100.00;93609.69;5077195;28;20392;-58
2023/09/18 10:17:19;;;;;;;4.72;1.23;;;;;;;16.10;100.00;93642.94;5089574;28;20545;-59
2023/09/18 10:20:19;;;;;;;3.85;1.33;;;;;;;16.20;100.00;93662.31;5090185;28;20040;-59
2023/09/18 10:22:49;;;;;;;5.63;1.50;;;;;;;16.37;100.00;93680.97;5089753;28;20040;-60
2023/09/18 10:25:22;;;;;;;4.35;1.50;;;;;;;16.61;100.00;93690.72;5090383;28;20032;-59
2023/09/18 10:27:54;;;;;;;4.00;1.60;;;;;;;16.60;100.00;93681.63;5089765;28;20070;-59
2023/09/18 10:30:22;;;;;;;3.60;1.65;;;;;;;16.57;100.00;93674.22;5089939;28;20382;-59
2023/09/18 10:32:51;;;;;;;5.20;2.03;;;;;;;16.73;100.00;93684.25;5089854;28;20048;-59
2023/09/18 10:35:18;;;;;;;3.58;1.55;;;;;;;16.64;100.00;93687.00;5090069;28;20073;-59
2023/09/18 10:37:48;;;;;;;5.47;1.48;;;;;;;16.62;100.00;93695.00;5089443;28;20062;-59
2023/09/18 10:40:15;;;;;;;6.30;1.50;;;;;;;16.66;100.00;93674.25;5089480;28;20048;-59
2023/09/18 10:42:42;;;;;;;3.90;1.50;;;;;;;16.67;100.00;93681.31;5088330;28;20052;-59
2023/09/18 10:45:11;;;;;;;4.60;1.70;;;;;;;16.63;100.00;93680.69;5071786;28;20478;-59
2023/09/18 10:47:45;;;;;;;2.72;1.35;;;;;;;16.70;100.00;93687.94;5079171;28;20035;-59
2023/09/18 10:50:12;;;;;;;4.10;1.45;;;;;;;16.61;100.00;93685.16;5090151;28;20054;-59
2023/09/18 10:52:43;;;;;;;4.30;1.40;;;;;;;16.68;100.00;93682.88;5089269;28;20036;-59
2023/09/18 10:55:14;;;;;;;4.22;1.50;;;;;;;16.80;100.00;93681.16;5089845;28;20066;-59
2023/09/18 10:57:55;;;;;;;3.63;1.77;;;;;;;16.80;100.00;93678.38;5089392;28;20048;-59
2023/09/18 11:00:25;;;;;;;4.60;1.80;;;;;;;16.54;100.00;93672.38;5089657;28;20032;-59
2023/09/18 11:02:52;;;;;;;4.85;1.67;;;;;;;16.42;100.00;93668.53;5088983;28;20640;-59
2023/09/18 11:05:30;;;;;;;4.37;1.70;;;;;;;16.40;100.00;93664.66;5089040;28;20088;-59
2023/09/18 11:08:34;;;;;;;4.18;2.00;;;;;;;16.45;100.00;93669.59;5089206;28;20044;-59
2023/09/18 11:11:13;;;;;;;5.93;1.95;;;;;;;16.56;100.00;93661.63;5045586;28;21728;-59
2023/09/18 11:13:43;;;;;;;5.10;2.10;;;;;;;16.65;100.00;93667.16;5084464;28;20476;-59
2023/09/18 11:16:15;;;;;;;7.55;2.30;;;;;;;16.41;100.00;93649.59;5089556;28;20055;-59
2023/09/18 11:18:41;;;;;;;6.47;2.30;;;;;;;16.38;100.00;93637.44;5089066;28;20036;-59
2023/09/18 11:21:12;;;;;;;5.90;2.10;;;;;;;16.21;100.00;93616.81;5089327;28;20044;-59
2023/09/18 11:23:42;;;;;;;6.05;2.40;;;;;;;16.15;100.00;93622.94;5088555;28;20054;-59
2023/09/18 11:26:10;;;;;;;6.20;2.97;;;;;;;16.16;100.00;93627.25;5089074;28;20047;-59
2023/09/18 11:28:38;;;;;;;6.05;2.60;;;;;;;16.30;100.00;93625.91;5088672;28;20042;-59